Time;durP1;ratioP1;P1;durP2;ratioP2;P2;SDS_P1;SDS_P2;PMS_P1;PMS_P2;Temp;Humidity;BMP_temperature;BMP_pressure;BME280_temperature;BME280_humidity;BME280_pressure;Samples;Min_cycle;Max_cycle;Signal;HPM_P1;HPM_P2
2023/01/12 00:01:06;;;;;;;0.10;0.10;;;;;;;10.84;72.51;100915.78;5037952;28;20083;-81
2023/01/12 00:03:32;;;;;;;0.13;0.13;;;;;;;10.83;72.48;100918.47;5037487;28;20021;-82
2023/01/12 00:06:00;;;;;;;0.10;0.10;;;;;;;10.77;73.25;100897.41;5037285;28;20022;-82
2023/01/12 00:08:26;;;;;;;0.10;0.10;;;;;;;10.85;72.82;100895.44;5041007;28;20049;-82
2023/01/12 00:10:55;;;;;;;0.25;0.25;;;;;;;10.91;73.08;100894.47;5036915;28;20076;-81
2023/01/12 00:13:22;;;;;;;0.73;0.73;;;;;;;10.83;73.33;100899.94;5037544;28;20045;-82
2023/01/12 00:18:34;;;;;;;0.17;0.17;;;;;;;10.77;74.11;100892.97;5037504;28;20034;-82
2023/01/12 00:21:00;;;;;;;0.30;0.30;;;;;;;10.78;74.24;100888.53;5033728;28;20030;-82
2023/01/12 00:23:28;;;;;;;0.10;0.10;;;;;;;10.79;74.18;100879.66;5041118;28;20046;-82
2023/01/12 00:25:54;;;;;;;15.20;2.45;;;;;;;10.77;74.49;100878.84;5043163;28;20040;-80
2023/01/12 00:28:20;;;;;;;0.20;0.20;;;;;;;10.76;75.05;100869.16;5042942;28;20052;-80
2023/01/12 00:30:46;;;;;;;0.20;0.20;;;;;;;10.71;75.39;100865.72;5042323;28;20025;-81
2023/01/12 00:33:13;;;;;;;0.10;0.10;;;;;;;10.81;75.18;100862.81;5040276;28;20022;-81
2023/01/12 00:35:39;;;;;;;1.98;1.88;;;;;;;10.83;74.82;100870.78;5040856;28;20022;-81
2023/01/12 00:38:05;;;;;;;0.10;0.10;;;;;;;10.81;75.33;100862.81;5041670;28;20026;-82
2023/01/12 00:40:34;;;;;;;0.10;0.10;;;;;;;10.86;75.42;100870.69;5041807;28;20093;-82
2023/01/12 00:45:50;;;;;;;0.10;0.10;;;;;;;10.84;76.09;100857.47;5033893;28;20034;-82
2023/01/12 00:48:16;;;;;;;0.10;0.10;;;;;;;10.90;75.76;100856.47;5026649;28;20033;-82
2023/01/12 00:50:45;;;;;;;0.75;0.75;;;;;;;10.84;75.93;100861.88;5041960;28;20021;-81
2023/01/12 00:53:11;;;;;;;1.45;1.35;;;;;;;10.86;76.00;100852.13;5050890;28;20022;-81
2023/01/12 00:55:37;;;;;;;0.10;0.10;;;;;;;10.88;75.75;100842.38;5036973;28;20116;-82
2023/01/12 00:58:04;;;;;;;0.10;0.10;;;;;;;10.82;76.78;100850.47;5031758;28;20476;-82
2023/01/12 01:00:33;;;;;;;0.10;0.10;;;;;;;10.89;76.25;100844.13;5033114;28;20380;-82
2023/01/12 01:02:59;;;;;;;0.10;0.10;;;;;;;10.93;76.65;100829.91;5031009;28;20041;-81
2023/01/12 01:05:25;;;;;;;33.80;3.65;;;;;;;10.90;76.42;100819.34;5033904;28;20527;-82
2023/01/12 01:07:51;;;;;;;4.70;2.47;;;;;;;10.98;75.85;100811.25;5034013;28;20041;-83
2023/01/12 01:10:18;;;;;;;0.22;0.22;;;;;;;11.00;76.32;100810.31;5035478;28;20021;-82
2023/01/12 01:12:44;;;;;;;0.98;0.82;;;;;;;11.00;76.51;100805.00;5043385;28;20030;-82
2023/01/12 01:15:10;;;;;;;8.55;1.15;;;;;;;10.96;76.60;100797.16;5039325;28;20025;-84
2023/01/12 01:17:36;;;;;;;0.10;0.10;;;;;;;10.98;76.16;100808.59;5038241;28;20033;-84
2023/01/12 01:20:03;;;;;;;3.25;2.00;;;;;;;10.91;76.35;100801.69;5036170;28;20071;-83
2023/01/12 01:22:29;;;;;;;0.10;0.10;;;;;;;10.84;76.60;100803.56;5036334;28;20112;-84
2023/01/12 01:24:55;;;;;;;0.10;0.10;;;;;;;10.85;76.81;100810.63;5034888;28;20021;-83
2023/01/12 01:27:21;;;;;;;0.10;0.10;;;;;;;10.82;77.04;100816.00;5034031;28;20018;-83
2023/01/12 01:29:48;;;;;;;0.10;0.10;;;;;;;10.85;77.19;100792.06;5030946;28;20107;-83
2023/01/12 01:32:14;;;;;;;0.13;0.13;;;;;;;10.81;77.09;100793.06;5032292;28;20045;-82
2023/01/12 01:34:40;;;;;;;0.10;0.10;;;;;;;10.84;77.05;100791.22;5036014;28;20029;-82
2023/01/12 01:37:06;;;;;;;0.10;0.10;;;;;;;10.89;76.88;100791.13;5034695;28;20052;-82
2023/01/12 01:39:32;;;;;;;0.10;0.10;;;;;;;10.88;77.21;100784.06;5031680;28;20502;-83
2023/01/12 01:41:59;;;;;;;0.10;0.10;;;;;;;10.83;77.24;100781.53;5033504;28;20382;-83
2023/01/12 01:47:11;;;;;;;0.10;0.10;;;;;;;10.81;77.95;100793.06;5095048;27;20412;-82
2023/01/12 01:49:44;;;;;;;0.10;0.10;;;;;;;10.91;77.09;100784.00;5095758;28;20028;-82
2023/01/12 01:52:33;;;;;;;0.10;0.10;;;;;;;10.99;77.00;100792.66;5095892;28;20444;-82
2023/01/12 01:55:06;;;;;;;0.10;0.10;;;;;;;10.88;77.18;100783.19;5089076;28;20099;-82
2023/01/12 01:57:43;;;;;;;0.10;0.10;;;;;;;10.96;76.88;100770.63;5087225;28;20020;-82
2023/01/12 02:00:12;;;;;;;0.13;0.13;;;;;;;10.89;76.32;100769.91;5088673;28;20024;-81
2023/01/12 02:02:39;;;;;;;0.38;0.38;;;;;;;10.82;77.10;100763.88;5095592;28;20093;-81
2023/01/12 02:05:06;;;;;;;0.10;0.10;;;;;;;10.83;77.26;100759.44;5096802;28;20024;-80
2023/01/12 02:07:32;;;;;;;0.10;0.10;;;;;;;10.87;76.73;100755.81;5088567;28;20492;-81
2023/01/12 02:09:59;;;;;;;9.75;2.05;;;;;;;10.86;76.33;100740.81;5084570;28;20032;-81
2023/01/12 02:16:19;;;;;;;0.20;0.20;;;;;;;10.84;76.51;100729.38;5085198;28;20036;-80
2023/01/12 02:18:23;;;;;;;0.10;0.10;;;;;;;10.91;76.49;100712.41;5082696;28;20515;-81
2023/01/12 02:23:48;;;;;;;0.10;0.10;;;;;;;10.85;77.00;100707.25;5061756;28;20921;-81
2023/01/12 02:26:44;;;;;;;0.20;0.20;;;;;;;10.90;76.43;100691.25;5045541;28;20061;-81
2023/01/12 02:29:50;;;;;;;0.20;0.20;;;;;;;10.90;77.01;100692.13;5044128;28;20033;-80
2023/01/12 02:40:34;;;;;;;0.17;0.17;;;;;;;10.96;77.32;100676.06;5111363;27;1185606;-81
2023/01/12 02:43:13;;;;;;;0.80;0.80;;;;;;;11.03;77.04;100649.41;5145072;27;20499;-82
2023/01/12 02:48:43;;;;;;;0.10;0.10;;;;;;;11.00;77.33;100695.41;5133698;27;20766;-80
2023/01/12 02:51:28;;;;;;;0.20;0.20;;;;;;;11.00;76.73;100645.94;5145023;27;20015;-80
2023/01/12 02:54:00;;;;;;;0.10;0.10;;;;;;;10.93;77.46;100654.94;5147752;27;20028;-81
2023/01/12 02:56:40;;;;;;;0.20;0.20;;;;;;;11.00;76.76;100640.63;5118011;28;20020;-80
2023/01/12 02:59:15;;;;;;;0.30;0.30;;;;;;;10.96;77.22;100617.75;5117609;28;20039;-81
2023/01/12 03:01:43;;;;;;;0.10;0.10;;;;;;;10.93;77.21;100617.84;5119898;28;20046;-81
2023/01/12 03:04:12;;;;;;;0.17;0.17;;;;;;;10.96;77.50;100622.19;5116081;28;20081;-81
2023/01/12 03:09:43;;;;;;;0.10;0.10;;;;;;;10.96;77.79;100590.38;5089301;28;20391;-81
2023/01/12 03:12:15;;;;;;;0.20;0.20;;;;;;;11.02;77.50;100581.41;5090536;28;20084;-81
2023/01/12 03:14:46;;;;;;;0.10;0.10;;;;;;;10.98;77.06;100573.53;5083391;28;20044;-81
2023/01/12 03:17:21;;;;;;;0.40;0.40;;;;;;;10.84;77.18;100580.94;5074803;28;20040;-81
2023/01/12 03:19:49;;;;;;;0.20;0.20;;;;;;;10.88;77.52;100577.31;5058072;28;20033;-81
2023/01/12 03:22:16;;;;;;;0.20;0.20;;;;;;;10.80;77.60;100576.63;5055150;28;20037;-81
2023/01/12 03:24:49;;;;;;;0.10;0.10;;;;;;;10.86;77.13;100554.44;5056213;28;20029;-81
2023/01/12 03:27:26;;;;;;;0.10;0.10;;;;;;;10.82;77.50;100551.84;5054556;28;20036;-81
2023/01/12 03:30:00;;;;;;;0.20;0.20;;;;;;;10.81;77.58;100538.63;5054788;28;20017;-82
2023/01/12 03:32:27;;;;;;;0.20;0.20;;;;;;;10.73;77.20;100530.00;5062088;28;20025;-82
2023/01/12 03:34:53;;;;;;;0.20;0.20;;;;;;;10.67;77.50;100489.50;5057487;28;20057;-81
2023/01/12 03:37:42;;;;;;;0.10;0.10;;;;;;;10.68;77.32;100485.09;5063573;28;20048;-81
2023/01/12 03:40:17;;;;;;;0.28;0.28;;;;;;;10.61;77.72;100476.41;5062325;28;20016;-79
2023/01/12 03:43:09;;;;;;;0.10;0.10;;;;;;;10.63;77.49;100458.72;5066778;28;20026;-81
2023/01/12 03:45:51;;;;;;;0.10;0.10;;;;;;;10.55;77.53;100455.38;5068246;28;20025;-80
2023/01/12 03:48:26;;;;;;;1.83;1.73;;;;;;;10.65;77.50;100445.41;5069250;28;20022;-79
2023/01/12 03:53:37;;;;;;;0.10;0.10;;;;;;;10.56;77.78;100425.34;5071375;28;20367;-81
2023/01/12 03:56:07;;;;;;;0.22;0.22;;;;;;;10.52;77.51;100443.09;5053071;28;20033;-81
2023/01/12 03:58:35;;;;;;;0.10;0.10;;;;;;;10.48;77.47;100427.31;5052065;28;20037;-81
2023/01/12 04:01:02;;;;;;;0.45;0.45;;;;;;;10.52;77.79;100400.72;5050630;28;20041;-81
2023/01/12 04:03:28;;;;;;;0.10;0.10;;;;;;;10.53;77.66;100412.19;5052131;28;20036;-81
2023/01/12 04:05:54;;;;;;;0.10;0.10;;;;;;;10.35;77.98;100402.91;5052956;28;20033;-81
2023/01/12 04:08:20;;;;;;;0.10;0.10;;;;;;;10.38;78.15;100399.34;5064254;28;20024;-80
2023/01/12 04:10:46;;;;;;;0.15;0.15;;;;;;;10.48;77.63;100387.59;5071379;28;20033;-80
2023/01/12 04:13:13;;;;;;;0.20;0.20;;;;;;;10.39;78.18;100374.59;5057737;28;20053;-81
2023/01/12 04:15:41;;;;;;;0.10;0.10;;;;;;;10.44;78.10;100372.69;5051109;28;20040;-81
2023/01/12 04:18:08;;;;;;;0.10;0.10;;;;;;;10.35;78.38;100377.31;5049320;28;20031;-81
2023/01/12 04:20:35;;;;;;;0.10;0.10;;;;;;;10.44;77.82;100380.63;5052563;28;20061;-83
2023/01/12 04:23:01;;;;;;;0.10;0.10;;;;;;;10.48;77.61;100372.56;5052648;28;20097;-82
2023/01/12 04:25:27;;;;;;;0.10;0.10;;;;;;;10.43;78.28;100363.00;5053500;28;20057;-83
2023/01/12 04:28:00;;;;;;;1.08;1.08;;;;;;;10.48;78.23;100355.78;5053586;28;20032;-82
2023/01/12 04:30:28;;;;;;;0.50;0.50;;;;;;;10.50;77.96;100373.41;5051407;28;20035;-82
2023/01/12 04:32:56;;;;;;;0.50;0.50;;;;;;;10.51;77.98;100368.97;5055248;28;20547;-83
2023/01/12 04:35:23;;;;;;;0.17;0.17;;;;;;;10.47;78.42;100362.03;5055901;28;20332;-82
2023/01/12 04:37:50;;;;;;;0.10;0.10;;;;;;;10.41;78.27;100370.13;5053621;28;20041;-83
2023/01/12 04:40:17;;;;;;;0.10;0.10;;;;;;;10.42;78.12;100366.56;5054636;28;20116;-83
2023/01/12 04:42:59;;;;;;;0.20;0.20;;;;;;;10.48;78.49;100354.03;5053481;28;20025;-82
2023/01/12 04:45:26;;;;;;;0.20;0.20;;;;;;;10.45;78.49;100316.16;5051312;28;20025;-82
2023/01/12 04:47:52;;;;;;;0.10;0.10;;;;;;;10.46;78.31;100352.34;5050446;28;20359;-82
2023/01/12 04:50:19;;;;;;;0.10;0.10;;;;;;;10.45;78.27;100355.91;5053315;28;20025;-80
2023/01/12 04:52:45;;;;;;;1.98;0.98;;;;;;;10.42;78.47;100345.38;5051932;28;20059;-83
2023/01/12 04:55:11;;;;;;;0.10;0.10;;;;;;;10.40;78.77;100326.03;5053510;28;20055;-84
2023/01/12 04:57:37;;;;;;;0.10;0.10;;;;;;;10.35;78.53;100365.84;5052029;28;20021;-84
2023/01/12 05:00:05;;;;;;;0.10;0.10;;;;;;;10.51;78.05;100335.38;5059105;28;20036;-83
2023/01/12 05:02:31;;;;;;;0.10;0.10;;;;;;;10.46;78.61;100320.56;5062737;28;20032;-83
2023/01/12 05:04:57;;;;;;;0.10;0.10;;;;;;;10.44;78.42;100339.16;5042695;28;20033;-83
2023/01/12 05:07:23;;;;;;;0.10;0.10;;;;;;;10.43;78.67;100331.22;5042010;28;20068;-83
2023/01/12 05:12:35;;;;;;;0.10;0.10;;;;;;;10.52;78.56;100320.38;5043147;28;20452;-84
2023/01/12 05:15:02;;;;;;;0.20;0.20;;;;;;;10.49;78.81;100329.28;5045694;28;20082;-83
2023/01/12 05:17:29;;;;;;;0.10;0.10;;;;;;;10.49;78.97;100336.34;5045771;28;20036;-83
2023/01/12 05:19:58;;;;;;;0.10;0.10;;;;;;;10.44;79.11;100325.91;5059884;28;20033;-84
2023/01/12 05:22:24;;;;;;;0.10;0.10;;;;;;;10.55;78.52;100328.22;5044474;28;20033;-83
2023/01/12 05:24:50;;;;;;;0.10;0.10;;;;;;;10.55;78.86;100341.47;5061911;28;20035;-83
2023/01/12 05:27:17;;;;;;;0.10;0.10;;;;;;;10.58;78.86;100353.75;5068699;28;20046;-83
2023/01/12 05:29:43;;;;;;;0.10;0.10;;;;;;;10.52;78.68;100338.94;5058979;28;20036;-83
2023/01/12 05:32:09;;;;;;;0.63;0.63;;;;;;;10.70;78.09;100339.31;5050647;28;20045;-82
2023/01/12 05:34:35;;;;;;;0.10;0.10;;;;;;;10.70;78.35;100334.03;5046541;28;20107;-83
2023/01/12 05:37:03;;;;;;;0.75;0.75;;;;;;;10.60;78.55;100352.81;5053475;28;20049;-83
2023/01/12 05:39:29;;;;;;;0.00;0.00;;;;;;;10.68;78.14;100348.19;5057617;28;20029;-83
2023/01/12 05:44:41;;;;;;;0.15;0.15;;;;;;;10.59;79.12;100343.16;5037774;28;20095;-83
2023/01/12 05:47:07;;;;;;;0.10;0.10;;;;;;;10.82;78.22;100344.25;5040300;28;20053;-82
2023/01/12 05:49:33;;;;;;;0.10;0.10;;;;;;;10.85;78.11;100349.47;5034845;28;20033;-82
2023/01/12 05:51:59;;;;;;;0.10;0.10;;;;;;;10.83;78.00;100330.09;5042330;28;20053;-83
2023/01/12 05:54:25;;;;;;;0.10;0.10;;;;;;;10.88;78.07;100328.19;5041006;28;20405;-82
2023/01/12 05:56:52;;;;;;;0.10;0.10;;;;;;;10.82;78.91;100323.06;5041900;28;20022;-84
2023/01/12 05:59:18;;;;;;;0.10;0.10;;;;;;;10.86;79.61;100303.50;5041401;28;20047;-83
2023/01/12 06:01:44;;;;;;;0.10;0.10;;;;;;;10.99;79.16;100319.88;5037543;28;20200;-83
2023/01/12 06:04:10;;;;;;;0.10;0.10;;;;;;;11.06;79.65;100321.44;5043453;28;20087;-83
2023/01/12 06:06:36;;;;;;;0.10;0.10;;;;;;;11.17;78.93;100315.81;5040431;28;20749;-83
2023/01/12 06:09:02;;;;;;;0.10;0.10;;;;;;;11.16;79.28;100314.09;5046758;28;20040;-83
2023/01/12 06:14:15;;;;;;;0.10;0.10;;;;;;;11.28;79.53;100311.06;5040635;28;20133;-83
2023/01/12 06:16:42;;;;;;;0.10;0.10;;;;;;;11.31;79.72;100342.78;5044319;28;20044;-83
2023/01/12 06:19:09;;;;;;;0.10;0.10;;;;;;;11.38;79.60;100363.81;5048714;28;20029;-83
2023/01/12 06:21:37;;;;;;;0.10;0.10;;;;;;;11.47;79.64;100358.22;5048031;28;20021;-83
2023/01/12 06:24:03;;;;;;;0.10;0.10;;;;;;;11.62;79.21;100331.19;5044285;28;20390;-83
2023/01/12 06:26:29;;;;;;;0.10;0.10;;;;;;;11.69;79.36;100336.28;5056445;28;20080;-82
2023/01/12 06:28:55;;;;;;;0.10;0.10;;;;;;;11.69;78.98;100345.13;5053884;28;20034;-82
2023/01/12 06:31:21;;;;;;;0.30;0.30;;;;;;;11.76;79.32;100348.44;5051574;28;20037;-83
2023/01/12 06:33:47;;;;;;;0.20;0.20;;;;;;;11.78;79.11;100341.31;5046946;28;20033;-84
2023/01/12 06:36:13;;;;;;;0.17;0.17;;;;;;;11.84;78.94;100338.47;5048877;28;20086;-83
2023/01/12 06:38:40;;;;;;;0.10;0.10;;;;;;;11.91;78.64;100340.00;5042724;28;20047;-83
2023/01/12 06:43:55;;;;;;;0.10;0.10;;;;;;;11.90;78.38;100367.44;5054835;28;20095;-82
2023/01/12 06:46:22;;;;;;;0.20;0.20;;;;;;;12.05;78.53;100391.78;5060807;28;20025;-83
2023/01/12 06:48:48;;;;;;;0.10;0.10;;;;;;;12.04;78.04;100355.53;5050397;28;20049;-83
2023/01/12 06:51:14;;;;;;;0.10;0.10;;;;;;;12.12;78.01;100359.66;5044693;28;20037;-83
2023/01/12 06:53:40;;;;;;;0.10;0.10;;;;;;;12.09;77.74;100369.53;5046467;28;20033;-83
2023/01/12 06:56:06;;;;;;;0.10;0.10;;;;;;;12.17;78.00;100353.31;5043927;28;20026;-83
2023/01/12 06:58:32;;;;;;;0.10;0.10;;;;;;;12.23;77.23;100369.91;5045314;28;20052;-82
2023/01/12 07:01:02;;;;;;;2.47;1.23;;;;;;;12.18;78.54;100355.06;5043808;28;20028;-82
2023/01/12 07:03:29;;;;;;;0.10;0.10;;;;;;;12.19;78.55;100355.00;5043969;28;20029;-82
2023/01/12 07:05:58;;;;;;;0.10;0.10;;;;;;;12.37;77.21;100357.94;5042547;28;20053;-83
2023/01/12 07:08:24;;;;;;;0.10;0.10;;;;;;;12.30;77.51;100368.78;5046499;28;20035;-83
2023/01/12 07:10:50;;;;;;;0.10;0.10;;;;;;;12.28;77.89;100357.31;5043178;28;20037;-81
2023/01/12 07:13:16;;;;;;;0.10;0.10;;;;;;;12.40;77.55;100376.41;5039402;28;20037;-83
2023/01/12 07:15:42;;;;;;;0.50;0.50;;;;;;;12.44;77.62;100364.78;5037355;28;20025;-83
2023/01/12 07:18:08;;;;;;;0.30;0.30;;;;;;;12.46;77.12;100366.44;5040004;28;20039;-83
2023/01/12 07:20:34;;;;;;;0.40;0.40;;;;;;;12.44;77.47;100362.97;5039835;28;20501;-85
2023/01/12 07:23:01;;;;;;;0.10;0.10;;;;;;;12.38;77.32;100367.66;5040982;28;20033;-84
2023/01/12 07:25:27;;;;;;;0.40;0.40;;;;;;;12.43;77.59;100366.53;5043101;28;20045;-84
2023/01/12 07:27:55;;;;;;;1.40;1.40;;;;;;;12.49;77.07;100365.47;5040323;28;20562;-84
2023/01/12 07:30:25;;;;;;;1.52;1.42;;;;;;;12.49;77.25;100359.31;5035406;28;20036;-83
2023/01/12 07:32:51;;;;;;;0.10;0.10;;;;;;;12.52;77.58;100391.91;5036347;28;20025;-84
2023/01/12 07:35:18;;;;;;;0.10;0.10;;;;;;;12.42;77.87;100382.56;5035910;28;20033;-85
2023/01/12 07:37:48;;;;;;;5.78;1.20;;;;;;;12.53;77.08;100379.53;5037915;28;20030;-85
2023/01/12 07:40:15;;;;;;;1.08;1.08;;;;;;;12.39;77.41;100374.69;5039085;28;20511;-85
2023/01/12 07:42:41;;;;;;;0.45;0.45;;;;;;;12.45;77.60;100385.13;5041715;28;20032;-83
2023/01/12 07:45:07;;;;;;;0.10;0.10;;;;;;;12.40;77.37;100401.22;5043392;28;20121;-83
2023/01/12 07:47:34;;;;;;;5.28;1.20;;;;;;;12.35;78.09;100403.16;5057345;28;20018;-83
2023/01/12 07:50:00;;;;;;;0.10;0.10;;;;;;;12.51;77.14;100400.84;5056722;28;20026;-83
2023/01/12 07:52:26;;;;;;;0.10;0.10;;;;;;;12.54;77.08;100403.38;5056341;28;20053;-83
2023/01/12 07:54:52;;;;;;;0.10;0.10;;;;;;;12.55;76.96;100423.72;5055423;28;20033;-83
2023/01/12 07:57:18;;;;;;;0.10;0.10;;;;;;;12.51;77.32;100406.16;5057525;28;20068;-83
2023/01/12 07:59:44;;;;;;;30.23;2.00;;;;;;;12.45;77.87;100428.47;5055754;28;20013;-84
2023/01/12 08:02:15;;;;;;;0.10;0.10;;;;;;;12.57;76.85;100405.06;5057476;28;20018;-84
2023/01/12 08:04:42;;;;;;;1.13;0.80;;;;;;;12.68;76.54;100408.19;5056666;28;20093;-83
2023/01/12 08:07:08;;;;;;;3.95;1.15;;;;;;;12.55;77.28;100407.78;5055182;28;20030;-84
2023/01/12 08:09:34;;;;;;;1.00;0.30;;;;;;;12.69;76.68;100417.06;5044926;28;20031;-83
2023/01/12 08:12:00;;;;;;;0.22;0.22;;;;;;;12.62;76.46;100424.34;5043808;28;20029;-84
2023/01/12 08:14:33;;;;;;;0.10;0.10;;;;;;;12.66;76.70;100426.00;5041440;28;20065;-83
2023/01/12 08:17:00;;;;;;;0.20;0.20;;;;;;;12.62;76.78;100403.97;5035155;28;20040;-85
2023/01/12 08:19:37;;;;;;;3.53;3.22;;;;;;;12.64;77.08;100429.66;5041330;28;20116;-84
2023/01/12 08:22:08;;;;;;;0.10;0.10;;;;;;;12.71;77.08;100444.44;5041985;28;20025;-83
2023/01/12 08:24:42;;;;;;;0.00;0.00;;;;;;;12.67;76.50;100448.97;5042325;28;20044;-84
2023/01/12 08:27:09;;;;;;;0.10;0.10;;;;;;;12.71;76.63;100436.44;5041054;28;20045;-84
2023/01/12 08:29:42;;;;;;;0.10;0.10;;;;;;;12.77;76.60;100421.19;5039948;28;20045;-83
2023/01/12 08:32:11;;;;;;;0.88;0.88;;;;;;;12.68;76.59;100436.56;5040004;28;20029;-83
2023/01/12 08:34:40;;;;;;;0.10;0.10;;;;;;;12.69;77.14;100439.19;5041773;28;20045;-84
2023/01/12 08:37:11;;;;;;;0.10;0.10;;;;;;;12.73;76.45;100431.97;5041790;28;20029;-84
2023/01/12 08:39:38;;;;;;;1.27;1.20;;;;;;;12.79;76.62;100432.59;5041667;28;20032;-83
2023/01/12 08:42:04;;;;;;;0.50;0.47;;;;;;;12.75;76.40;100440.75;5044788;28;20030;-84
2023/01/12 08:44:33;;;;;;;0.20;0.20;;;;;;;12.67;76.88;100454.28;5043021;28;20029;-83
2023/01/12 08:46:59;;;;;;;4.47;0.80;;;;;;;12.68;77.02;100456.03;5042999;28;20045;-83
2023/01/12 08:49:27;;;;;;;0.40;0.40;;;;;;;12.69;77.71;100448.94;5044403;28;20033;-84
2023/01/12 08:51:54;;;;;;;0.10;0.10;;;;;;;12.73;76.84;100464.72;5045220;28;20515;-83
2023/01/12 08:54:20;;;;;;;0.52;0.52;;;;;;;12.72;76.73;100448.84;5045695;28;20029;-83
2023/01/12 08:56:48;;;;;;;1.02;0.98;;;;;;;12.66;77.50;100459.69;5042873;28;20114;-83
2023/01/12 08:59:17;;;;;;;0.90;0.90;;;;;;;12.60;77.58;100442.16;5042804;28;20021;-83
2023/01/12 09:01:44;;;;;;;0.20;0.20;;;;;;;12.76;77.00;100469.06;5042378;28;20040;-83
2023/01/12 09:04:10;;;;;;;0.20;0.20;;;;;;;12.84;76.94;100451.06;5043366;28;20076;-83
2023/01/12 09:06:39;;;;;;;0.13;0.13;;;;;;;12.86;76.16;100462.50;5042750;28;20521;-83
2023/01/12 09:09:10;;;;;;;0.10;0.10;;;;;;;12.85;76.73;100471.41;5042135;28;20083;-83
2023/01/12 09:11:38;;;;;;;3.08;2.15;;;;;;;12.84;76.61;100459.03;5042544;28;20116;-83
2023/01/12 09:14:04;;;;;;;1.60;1.50;;;;;;;12.85;76.49;100474.06;5042240;28;20401;-83
2023/01/12 09:16:32;;;;;;;0.40;0.40;;;;;;;12.77;76.54;100466.38;5043511;28;20037;-83
2023/01/12 09:18:59;;;;;;;0.68;0.68;;;;;;;12.78;76.94;100485.84;5056078;28;20025;-83
2023/01/12 09:21:27;;;;;;;0.15;0.15;;;;;;;12.73;76.22;100478.00;5055451;28;20504;-83
2023/01/12 09:23:54;;;;;;;0.10;0.10;;;;;;;12.84;76.36;100487.41;5049265;28;20033;-84
2023/01/12 09:26:23;;;;;;;0.40;0.40;;;;;;;12.95;75.54;100507.38;5047029;28;20039;-83
2023/01/12 09:28:50;;;;;;;0.10;0.10;;;;;;;12.88;75.98;100499.69;5045916;28;20040;-83
2023/01/12 09:31:19;;;;;;;0.55;0.55;;;;;;;12.99;75.43;100491.31;5044441;28;20056;-83
2023/01/12 09:33:45;;;;;;;0.10;0.10;;;;;;;12.86;75.66;100498.84;5043897;28;20034;-83
2023/01/12 09:36:14;;;;;;;7.07;0.60;;;;;;;12.93;75.58;100535.84;5043009;28;20025;-84
2023/01/12 09:38:43;;;;;;;0.32;0.32;;;;;;;12.96;75.70;100508.25;5041592;28;20037;-83
2023/01/12 09:41:14;;;;;;;0.10;0.10;;;;;;;13.10;75.27;100524.56;5041861;28;20032;-83
2023/01/12 09:47:05;;;;;;;0.10;0.10;;;;;;;12.98;75.63;100516.19;5041660;28;20049;-84
2023/01/12 09:49:23;;;;;;;0.10;0.10;;;;;;;13.03;76.15;100525.72;5040887;28;20033;-83
2023/01/12 09:51:57;;;;;;;1.08;1.08;;;;;;;13.06;75.86;100532.72;5042964;28;20030;-82
2023/01/12 09:54:24;;;;;;;0.10;0.10;;;;;;;12.93;76.55;100538.50;5041959;28;20037;-83
2023/01/12 09:57:16;;;;;;;0.10;0.10;;;;;;;13.02;76.22;100552.38;5041547;28;20032;-83
2023/01/12 09:59:59;;;;;;;0.15;0.15;;;;;;;12.89;77.00;100543.97;5033637;28;20163;-83
2023/01/12 10:02:26;;;;;;;0.20;0.20;;;;;;;12.90;76.75;100533.25;5039551;28;20079;-83
2023/01/12 10:04:55;;;;;;;2.17;1.98;;;;;;;13.00;76.36;100541.78;5041922;28;20559;-83
2023/01/12 10:07:21;;;;;;;17.23;2.35;;;;;;;12.91;77.01;100544.75;5042058;28;20033;-83
2023/01/12 10:09:48;;;;;;;0.10;0.10;;;;;;;12.90;77.18;100551.88;5042063;28;20029;-83
2023/01/12 10:18:12;;;;;;;0.10;0.10;;;;;;;12.92;76.88;100552.69;5085411;27;20393;-85
2023/01/12 10:20:42;;;;;;;0.10;0.10;;;;;;;12.86;77.29;100542.28;5077083;28;20060;-84
2023/01/12 10:25:50;;;;;;;0.30;0.30;;;;;;;12.88;77.15;100548.38;5100790;28;20378;-84
2023/01/12 10:28:34;;;;;;;0.10;0.10;;;;;;;12.90;77.17;100540.38;5076201;28;20029;-84
2023/01/12 10:31:01;;;;;;;1.02;1.02;;;;;;;12.80;77.56;100553.13;5071769;28;20058;-84
2023/01/12 10:33:30;;;;;;;0.10;0.10;;;;;;;12.76;77.79;100559.44;5073416;28;20013;-84
2023/01/12 10:36:15;;;;;;;1.20;1.20;;;;;;;12.88;77.39;100548.38;5058821;28;20041;-83
2023/01/12 10:39:02;;;;;;;0.50;0.50;;;;;;;12.90;77.13;100551.88;5054981;28;20033;-83
2023/01/12 10:41:30;;;;;;;0.10;0.10;;;;;;;12.93;77.19;100546.47;5054478;28;20044;-84
2023/01/12 10:46:34;;;;;;;0.20;0.20;;;;;;;12.90;77.23;100559.00;5094933;27;1878491;-84
2023/01/12 10:49:21;;;;;;;0.70;0.70;;;;;;;12.92;77.02;100566.00;5134001;28;20036;-82
2023/01/12 10:52:09;;;;;;;0.63;0.63;;;;;;;13.03;76.73;100552.31;5134066;28;20028;-84
2023/01/12 10:54:40;;;;;;;0.28;0.28;;;;;;;13.02;76.47;100549.72;5130360;28;20035;-84
2023/01/12 10:57:20;;;;;;;0.10;0.10;;;;;;;13.01;76.50;100559.50;5127663;28;20027;-84
2023/01/12 10:59:56;;;;;;;0.10;0.10;;;;;;;13.11;75.93;100560.03;5112882;28;20032;-83
2023/01/12 11:02:25;;;;;;;0.10;0.10;;;;;;;13.10;75.88;100542.34;5114275;28;20023;-83
2023/01/12 11:04:52;;;;;;;0.10;0.10;;;;;;;13.08;75.56;100533.53;5105970;28;20028;-83
2023/01/12 11:07:28;;;;;;;0.10;0.10;;;;;;;13.09;75.78;100536.13;5109521;28;20051;-82
2023/01/12 11:09:57;;;;;;;0.10;0.10;;;;;;;13.05;75.54;100542.50;5105501;28;20508;-82
2023/01/12 11:12:32;;;;;;;0.10;0.10;;;;;;;13.16;75.70;100550.09;5103551;28;20059;-82
2023/01/12 11:18:23;;;;;;;0.10;0.10;;;;;;;13.10;75.93;100574.25;5119190;27;20368;-82
2023/01/12 11:20:54;;;;;;;0.30;0.30;;;;;;;13.05;76.47;100541.63;5117778;28;20050;-82
2023/01/12 11:26:01;;;;;;;0.10;0.10;;;;;;;13.06;76.17;100546.91;5114637;27;1204891;-82
2023/01/12 11:28:41;;;;;;;0.32;0.32;;;;;;;12.92;76.91;100536.75;5132206;28;20032;-83
2023/01/12 11:31:19;;;;;;;8.55;6.15;;;;;;;13.01;76.49;100529.34;5129380;27;20035;-83
2023/01/12 11:33:52;;;;;;;1.05;1.05;;;;;;;12.83;76.87;100539.72;5127051;28;20032;-82
2023/01/12 11:36:23;;;;;;;0.20;0.20;;;;;;;12.90;76.46;100541.25;5107634;28;20028;-82
2023/01/12 11:38:54;;;;;;;0.30;0.30;;;;;;;12.94;77.12;100523.41;5105867;28;20131;-82
2023/01/12 11:41:34;;;;;;;0.40;0.40;;;;;;;12.86;77.07;100517.47;5107148;28;20019;-82
2023/01/12 11:44:25;;;;;;;0.28;0.28;;;;;;;12.94;77.44;100532.22;5105721;28;20058;-82
2023/01/12 11:46:59;;;;;;;0.10;0.10;;;;;;;13.04;76.85;100524.78;5105817;28;20031;-82
2023/01/12 11:49:49;;;;;;;0.43;0.43;;;;;;;12.88;77.48;100520.94;5106131;28;20533;-82
2023/01/12 11:52:16;;;;;;;0.10;0.10;;;;;;;12.91;77.20;100518.16;5124163;28;20023;-82
2023/01/12 11:54:42;;;;;;;0.10;0.10;;;;;;;13.04;76.26;100522.13;5117910;28;20040;-82
2023/01/12 12:06:04;;;;;;;0.80;0.80;;;;;;;12.90;76.96;100525.28;5107725;27;1194463;-82
2023/01/12 12:14:22;;;;;;;0.10;0.10;;;;;;;13.09;76.41;100503.38;5109971;27;1200277;-80
2023/01/12 12:22:18;;;;;;;0.52;0.52;;;;;;;12.87;77.17;100509.47;5093258;28;20366;-82
2023/01/12 12:28:10;;;;;;;0.17;0.17;;;;;;;12.92;77.32;100491.53;5114545;27;20372;-82
2023/01/12 12:30:52;;;;;;;0.10;0.10;;;;;;;13.02;76.46;100475.25;5103126;28;20080;-82
2023/01/12 12:33:46;;;;;;;0.10;0.10;;;;;;;12.83;77.57;100486.53;5097574;28;20028;-82
2023/01/12 12:36:35;;;;;;;0.10;0.10;;;;;;;12.78;77.91;100483.19;5097195;28;20032;-83
2023/01/12 12:39:30;;;;;;;0.10;0.10;;;;;;;12.90;77.28;100481.88;5094182;28;20028;-83
2023/01/12 12:53:15;;;;;;;0.10;0.10;;;;;;;12.82;77.93;100479.47;5077984;28;20394;-84
2023/01/12 12:55:42;;;;;;;0.10;0.10;;;;;;;12.69;78.47;100462.25;5054595;28;20447;-84
2023/01/12 12:58:29;;;;;;;0.10;0.10;;;;;;;12.90;77.61;100492.53;5047416;28;20083;-85
2023/01/12 13:04:04;;;;;;;0.10;0.10;;;;;;;12.67;78.67;100456.09;5108015;27;20385;-85
2023/01/12 13:06:40;;;;;;;0.10;0.10;;;;;;;12.71;77.80;100466.59;5101125;28;20034;-85
2023/01/12 13:11:52;;;;;;;0.15;0.15;;;;;;;12.83;77.61;100449.31;5172001;27;20892;-84
2023/01/12 13:14:25;;;;;;;;;;;;;;;12.92;77.62;100443.69;5165783;27;20042;-84
2023/01/12 13:16:53;;;;;;;0.20;0.20;;;;;;;12.84;77.34;100435.09;5163385;27;19911;-84
2023/01/12 13:19:41;;;;;;;0.10;0.10;;;;;;;12.78;77.99;100464.56;5162056;27;20030;-84